createdAt,value
2022-11-30T00:00:01.959Z,4.19
2022-11-30T00:03:16.665Z,4.18
2022-11-30T00:06:23.160Z,4.18
2022-11-30T00:09:26.378Z,4.18
2022-11-30T00:12:30.126Z,4.20
2022-11-30T00:15:34.919Z,4.21
2022-11-30T00:18:39.877Z,4.19
2022-11-30T00:21:42.875Z,4.15
2022-11-30T00:24:46.084Z,4.13
2022-11-30T00:27:52.128Z,4.16
2022-11-30T00:30:59.190Z,4.14
2022-11-30T00:34:04.768Z,4.08
2022-11-30T00:37:07.981Z,4.04
2022-11-30T00:40:12.189Z,4.06
2022-11-30T00:43:15.542Z,4.08
2022-11-30T00:46:19.404Z,4.08
2022-11-30T00:49:24.401Z,4.06
2022-11-30T00:52:29.375Z,4.05
2022-11-30T00:55:33.359Z,3.98
2022-11-30T00:58:36.730Z,3.96
2022-11-30T01:01:39.800Z,3.93
2022-11-30T01:04:44.532Z,3.93
2022-11-30T01:07:47.887Z,3.98
2022-11-30T01:10:54.335Z,3.99
2022-11-30T01:13:59.791Z,4.00
2022-11-30T01:17:02.823Z,3.97
2022-11-30T01:20:09.027Z,3.91
2022-11-30T01:23:12.630Z,3.90
2022-11-30T01:26:16.301Z,3.90
2022-11-30T01:29:19.364Z,3.93
2022-11-30T01:32:22.431Z,3.94
2022-11-30T01:35:29.733Z,3.94
2022-11-30T01:38:34.524Z,3.89
2022-11-30T01:41:41.455Z,3.92
2022-11-30T01:45:05.329Z,3.91
2022-11-30T01:48:11.014Z,3.85
2022-11-30T01:51:17.857Z,3.90
2022-11-30T01:54:27.668Z,3.92
2022-11-30T01:57:37.078Z,3.88
2022-11-30T02:00:43.453Z,3.90
2022-11-30T02:03:55.843Z,3.86
2022-11-30T02:07:04.843Z,3.85
2022-11-30T02:10:13.778Z,3.85
2022-11-30T02:13:36.996Z,3.91
2022-11-30T02:16:57.151Z,3.88
2022-11-30T02:20:29.438Z,3.91
2022-11-30T02:24:07.569Z,3.82
2022-11-30T02:27:37.806Z,3.84
2022-11-30T02:30:49.070Z,3.81
2022-11-30T02:33:57.502Z,3.83
2022-11-30T02:37:02.221Z,3.85
2022-11-30T02:40:16.123Z,3.84
2022-11-30T02:43:22.931Z,3.88
2022-11-30T02:46:36.375Z,3.82
2022-11-30T02:49:47.961Z,3.84
2022-11-30T02:52:54.887Z,3.79
2022-11-30T02:55:58.129Z,3.78
2022-11-30T02:59:01.690Z,3.77
2022-11-30T03:02:06.503Z,3.78
2022-11-30T03:05:10.296Z,3.77
2022-11-30T03:08:13.304Z,3.80
2022-11-30T03:11:16.325Z,3.77
2022-11-30T03:14:19.563Z,3.77
2022-11-30T03:17:24.229Z,3.74
2022-11-30T03:20:33.487Z,3.74
2022-11-30T03:23:37.343Z,3.75
2022-11-30T03:26:40.455Z,3.70
2022-11-30T03:29:43.479Z,3.72
2022-11-30T03:32:47.903Z,3.70
2022-11-30T03:35:59.868Z,3.65
2022-11-30T03:39:02.996Z,3.65
2022-11-30T03:42:06.298Z,3.70
2022-11-30T03:45:10.070Z,3.69
2022-11-30T03:48:14.345Z,3.67
2022-11-30T03:51:17.329Z,3.66
2022-11-30T03:54:26.721Z,3.67
2022-11-30T03:57:29.857Z,3.70
2022-11-30T04:00:32.866Z,3.69
2022-11-30T04:03:39.916Z,3.70
2022-11-30T04:06:51.681Z,3.72
2022-11-30T04:09:57.760Z,3.68
2022-11-30T04:13:01.125Z,3.64
2022-11-30T04:16:05.724Z,3.64
2022-11-30T04:19:10.075Z,3.62
2022-11-30T04:22:15.951Z,3.57
2022-11-30T04:25:19.045Z,3.55
2022-11-30T04:28:22.224Z,3.57
2022-11-30T04:31:25.290Z,3.57
2022-11-30T04:34:31.578Z,3.55
2022-11-30T04:37:34.582Z,3.56
2022-11-30T04:40:41.301Z,3.56
2022-11-30T04:43:44.318Z,3.55
2022-11-30T04:46:47.297Z,3.54
2022-11-30T04:49:51.667Z,3.56
2022-11-30T04:52:54.836Z,3.55
2022-11-30T04:55:57.912Z,3.58
2022-11-30T04:59:02.792Z,3.53
2022-11-30T05:02:06.204Z,3.53
2022-11-30T05:05:11.864Z,3.53
2022-11-30T05:08:14.867Z,3.54
2022-11-30T05:11:17.863Z,3.54
2022-11-30T05:14:20.798Z,3.53
2022-11-30T05:17:23.822Z,3.53
2022-11-30T05:20:28.169Z,3.53
2022-11-30T05:23:31.103Z,3.53
2022-11-30T05:26:34.437Z,3.54
2022-11-30T05:29:37.617Z,3.54
2022-11-30T05:32:40.636Z,3.54
2022-11-30T05:35:45.226Z,3.53
2022-11-30T05:38:49.377Z,3.55
2022-11-30T05:41:52.518Z,3.59
2022-11-30T05:44:55.983Z,3.54
2022-11-30T05:47:59.066Z,3.51
2022-11-30T05:51:08.682Z,3.51
2022-11-30T05:54:11.705Z,3.55
2022-11-30T05:57:14.759Z,3.51
2022-11-30T06:00:19.039Z,3.48
2022-11-30T06:03:22.100Z,3.55
2022-11-30T06:06:26.431Z,3.56
2022-11-30T06:09:30.126Z,3.59
2022-11-30T06:12:33.140Z,3.62
2022-11-30T06:15:37.730Z,3.59
2022-11-30T06:18:40.887Z,3.58
2022-11-30T06:21:45.336Z,3.60
2022-11-30T06:24:48.585Z,3.64
2022-11-30T06:27:52.178Z,3.61
2022-11-30T06:30:59.724Z,3.65
2022-11-30T06:34:02.846Z,3.62
2022-11-30T06:37:07.200Z,3.64
2022-11-30T06:40:13.088Z,3.65
2022-11-30T06:43:16.136Z,3.66
2022-11-30T06:46:19.223Z,3.66
2022-11-30T06:49:22.656Z,3.72
2022-11-30T06:52:27.313Z,3.65
2022-11-30T06:55:32.764Z,3.62
2022-11-30T06:58:36.929Z,3.60
2022-11-30T07:01:39.911Z,3.57
2022-11-30T07:04:43.470Z,3.59
2022-11-30T07:07:48.062Z,3.58
2022-11-30T07:10:51.392Z,3.59
2022-11-30T07:13:54.365Z,3.58
2022-11-30T07:16:57.766Z,3.64
2022-11-30T07:20:00.731Z,3.66
2022-11-30T07:23:19.468Z,3.66
2022-11-30T07:26:22.952Z,3.66
2022-11-30T07:29:25.921Z,3.65
2022-11-30T07:32:28.899Z,3.62
2022-11-30T07:35:31.830Z,3.62
2022-11-30T07:38:36.089Z,3.64
2022-11-30T07:41:40.239Z,3.69
2022-11-30T07:44:43.284Z,3.72
2022-11-30T07:47:46.339Z,3.69
2022-11-30T07:50:50.253Z,3.66
2022-11-30T07:53:57.707Z,3.70
2022-11-30T07:57:00.820Z,3.69
2022-11-30T08:00:05.396Z,3.69
2022-11-30T08:03:15.130Z,3.66
2022-11-30T08:06:20.946Z,3.65
2022-11-30T08:09:25.221Z,3.66
2022-11-30T08:12:28.196Z,3.69
2022-11-30T08:15:33.289Z,3.73
2022-11-30T08:18:37.259Z,3.71
2022-11-30T08:21:40.197Z,3.70
2022-11-30T08:24:44.434Z,3.74
2022-11-30T08:27:47.351Z,3.74
2022-11-30T08:30:50.285Z,3.74
2022-11-30T08:33:57.847Z,3.83
2022-11-30T08:37:00.912Z,3.81
2022-11-30T08:40:06.987Z,3.83
2022-11-30T08:43:12.476Z,3.86
2022-11-30T08:49:40.562Z,3.82
2022-11-30T08:52:43.704Z,3.83
2022-11-30T08:55:58.580Z,3.85
2022-11-30T08:59:01.569Z,3.91
2022-11-30T09:02:05.630Z,3.95
2022-11-30T09:05:09.260Z,3.91
2022-11-30T09:08:12.400Z,3.96
2022-11-30T09:11:19.087Z,3.95
2022-11-30T09:14:22.415Z,3.91
2022-11-30T09:17:25.425Z,3.96
2022-11-30T09:20:28.430Z,4.02
2022-11-30T09:23:31.956Z,4.06
2022-11-30T09:26:40.804Z,4.11
2022-11-30T09:29:43.859Z,4.15
2022-11-30T09:32:46.893Z,4.16
2022-11-30T09:35:57.645Z,4.19
2022-11-30T09:39:04.403Z,4.23
2022-11-30T09:42:30.016Z,4.28
2022-11-30T09:45:38.983Z,4.33
2022-11-30T09:48:55.307Z,4.46
2022-11-30T09:52:03.482Z,4.48
2022-11-30T09:55:11.276Z,4.60
2022-11-30T09:58:28.671Z,4.61
2022-11-30T10:01:32.956Z,4.64
2022-11-30T10:04:37.230Z,4.76
2022-11-30T10:07:57.827Z,4.72
2022-11-30T10:11:25.705Z,4.81
2022-11-30T10:14:58.715Z,4.82
2022-11-30T10:18:17.261Z,4.84
2022-11-30T10:21:37.838Z,4.88
2022-11-30T10:25:01.516Z,5.00
2022-11-30T10:28:44.945Z,4.99
2022-11-30T10:31:44.675Z,4.98
2022-11-30T10:34:52.252Z,4.93
2022-11-30T10:37:57.958Z,5.03
2022-11-30T10:41:10.628Z,5.11
2022-11-30T10:44:19.859Z,5.03
2022-11-30T10:47:29.460Z,5.20
2022-11-30T10:50:32.653Z,5.23
2022-11-30T10:53:35.754Z,5.12
2022-11-30T10:56:38.918Z,5.20
2022-11-30T10:59:46.276Z,5.28
2022-11-30T11:02:51.586Z,5.29
2022-11-30T11:06:13.783Z,5.33
2022-11-30T11:09:53.179Z,5.23
2022-11-30T11:12:57.160Z,5.27
2022-11-30T11:16:02.263Z,5.35
2022-11-30T11:19:33.256Z,5.23
2022-11-30T11:22:38.243Z,5.33
2022-11-30T11:25:43.152Z,5.37
2022-11-30T11:28:50.339Z,5.37
2022-11-30T11:31:53.279Z,5.36
2022-11-30T11:34:58.796Z,5.40
2022-11-30T11:38:01.818Z,5.44
2022-11-30T11:41:09.868Z,5.45
2022-11-30T11:44:22.262Z,5.56
2022-11-30T11:47:28.309Z,5.51
2022-11-30T11:51:05.618Z,5.51
2022-11-30T11:53:59.866Z,5.36
2022-11-30T11:57:03.651Z,5.38
2022-11-30T12:00:16.862Z,5.46
2022-11-30T12:03:29.508Z,5.46
2022-11-30T12:06:35.589Z,5.31
2022-11-30T12:09:45.664Z,5.28
2022-11-30T12:12:53.446Z,5.42
2022-11-30T12:16:08.730Z,5.43
2022-11-30T12:19:16.592Z,5.46
2022-11-30T12:22:44.434Z,5.37
2022-11-30T12:25:56.120Z,5.41
2022-11-30T12:29:24.231Z,5.27
2022-11-30T12:32:44.190Z,5.34
2022-11-30T12:36:00.198Z,5.31
2022-11-30T12:39:10.839Z,5.18
2022-11-30T12:42:20.534Z,5.17
2022-11-30T12:45:30.711Z,5.16
2022-11-30T12:48:45.836Z,5.14
2022-11-30T12:52:00.298Z,5.08
2022-11-30T12:55:20.898Z,4.91
2022-11-30T12:58:32.048Z,4.99
2022-11-30T13:01:57.528Z,4.83
2022-11-30T13:05:05.261Z,4.77
2022-11-30T13:08:20.065Z,4.68
2022-11-30T13:11:30.878Z,4.72
2022-11-30T13:14:35.844Z,4.61
2022-11-30T13:17:39.365Z,4.55
2022-11-30T13:20:54.313Z,4.15
2022-11-30T13:24:07.129Z,4.04
2022-11-30T13:27:19.167Z,3.93
2022-11-30T13:30:39.904Z,4.07
2022-11-30T13:33:57.834Z,3.93
2022-11-30T13:37:07.106Z,3.79
2022-11-30T13:40:22.334Z,3.65
2022-11-30T13:43:30.569Z,3.52
2022-11-30T13:46:33.681Z,3.55
2022-11-30T13:49:37.642Z,3.53
2022-11-30T13:53:20.299Z,3.46
2022-11-30T13:56:35.902Z,3.31
2022-11-30T13:59:47.577Z,3.18
2022-11-30T14:02:54.429Z,3.08
2022-11-30T14:05:58.748Z,2.94
2022-11-30T14:09:01.714Z,2.78
2022-11-30T14:12:53.829Z,2.25
2022-11-30T14:16:01.468Z,2.09
2022-11-30T14:19:07.840Z,1.90
2022-11-30T14:22:12.789Z,1.78
2022-11-30T14:25:18.327Z,1.64
2022-11-30T14:28:25.498Z,1.60
2022-11-30T14:31:36.086Z,1.52
2022-11-30T14:34:43.784Z,1.54
2022-11-30T14:37:54.005Z,1.60
2022-11-30T14:40:57.891Z,1.60
2022-11-30T14:44:03.868Z,1.55
2022-11-30T14:47:23.665Z,1.68
2022-11-30T14:50:27.896Z,1.73
2022-11-30T14:53:37.480Z,1.73
2022-11-30T14:56:47.206Z,1.77
2022-11-30T14:59:53.115Z,1.85
2022-11-30T15:02:57.495Z,1.81
2022-11-30T15:06:03.669Z,1.74
2022-11-30T15:09:14.952Z,1.84
2022-11-30T15:12:21.825Z,1.74
2022-11-30T15:15:27.826Z,1.74
2022-11-30T15:18:32.139Z,1.63
2022-11-30T15:21:35.103Z,1.56
2022-11-30T15:24:38.076Z,1.56
2022-11-30T15:27:42.881Z,1.61
2022-11-30T15:30:54.852Z,1.64
2022-11-30T15:33:59.269Z,1.71
2022-11-30T15:37:02.419Z,1.65
2022-11-30T15:40:10.747Z,1.64
2022-11-30T15:43:22.083Z,1.63
2022-11-30T15:46:32.531Z,1.69
2022-11-30T15:49:37.348Z,1.81
2022-11-30T15:52:45.474Z,1.74
2022-11-30T15:55:51.224Z,1.83
2022-11-30T15:59:04.646Z,1.81
2022-11-30T16:02:23.743Z,1.73
2022-11-30T16:05:28.111Z,1.69
2022-11-30T16:08:31.689Z,1.69
2022-11-30T16:11:36.445Z,1.65
2022-11-30T16:14:39.426Z,1.57
2022-11-30T16:17:42.734Z,1.57
2022-11-30T16:20:51.082Z,1.52
2022-11-30T16:23:54.210Z,1.64
2022-11-30T16:26:57.365Z,1.62
2022-11-30T16:30:00.659Z,1.69
2022-11-30T16:33:03.844Z,1.63
2022-11-30T16:36:15.418Z,1.61
2022-11-30T16:39:18.403Z,1.57
2022-11-30T16:42:21.617Z,1.60
2022-11-30T16:45:27.147Z,1.71
2022-11-30T16:48:30.812Z,1.74
2022-11-30T16:51:36.116Z,1.77
2022-11-30T16:54:39.140Z,1.82
2022-11-30T16:57:42.533Z,1.87
2022-11-30T17:00:45.681Z,1.81
2022-11-30T17:03:54.347Z,1.85
2022-11-30T17:07:02.861Z,1.90
2022-11-30T17:10:07.862Z,1.90
2022-11-30T17:13:14.951Z,1.92
2022-11-30T17:16:17.959Z,1.95
2022-11-30T17:19:24.030Z,1.93
2022-11-30T17:22:28.282Z,1.87
2022-11-30T17:25:31.447Z,1.76
2022-11-30T17:28:34.498Z,1.78
2022-11-30T17:31:37.843Z,1.80
2022-11-30T17:34:41.836Z,1.71
2022-11-30T17:37:46.283Z,1.74
2022-11-30T17:40:49.368Z,1.83
2022-11-30T17:43:52.719Z,1.76
2022-11-30T17:46:56.348Z,1.81
2022-11-30T17:49:59.356Z,1.87
2022-11-30T17:53:04.823Z,1.81
2022-11-30T17:56:10.657Z,1.83
2022-11-30T17:59:13.687Z,1.76
2022-11-30T18:02:16.707Z,1.81
2022-11-30T18:05:20.373Z,1.83
2022-11-30T18:08:24.917Z,1.79
2022-11-30T18:11:28.217Z,1.80
2022-11-30T18:14:31.171Z,1.75
2022-11-30T18:17:37.412Z,1.78
2022-11-30T18:20:40.515Z,1.74
2022-11-30T18:23:45.050Z,1.70
2022-11-30T18:26:48.160Z,1.75
2022-11-30T18:29:52.078Z,1.72
2022-11-30T18:32:55.003Z,1.73
2022-11-30T18:35:58.833Z,1.75
2022-11-30T18:39:03.314Z,1.71
2022-11-30T18:42:06.283Z,1.58
2022-11-30T18:45:10.795Z,1.58
2022-11-30T18:48:13.805Z,1.64
2022-11-30T18:51:19.348Z,1.64
2022-11-30T18:54:25.157Z,1.64
2022-11-30T18:57:28.162Z,1.67
2022-11-30T19:00:31.164Z,1.68
2022-11-30T19:03:34.097Z,1.69
2022-11-30T19:06:38.668Z,1.68
2022-11-30T19:09:43.434Z,1.64
2022-11-30T19:12:46.677Z,1.58
2022-11-30T19:15:50.980Z,1.63
2022-11-30T19:18:54.573Z,1.45
2022-11-30T19:21:58.231Z,1.39
2022-11-30T19:25:02.574Z,1.39
2022-11-30T19:28:05.977Z,1.39
2022-11-30T19:31:12.061Z,1.43
2022-11-30T19:34:15.152Z,1.35
2022-11-30T19:37:18.124Z,1.38
2022-11-30T19:40:22.406Z,1.36
2022-11-30T19:43:25.484Z,1.28
2022-11-30T19:46:29.037Z,1.22
2022-11-30T19:49:32.158Z,1.28
2022-11-30T19:52:35.137Z,1.31
2022-11-30T19:55:41.167Z,1.33
2022-11-30T19:58:45.938Z,1.29
2022-11-30T20:01:48.953Z,1.33
2022-11-30T20:04:52.109Z,1.38
2022-11-30T20:07:55.163Z,1.41
2022-11-30T20:10:59.713Z,1.33
2022-11-30T20:14:02.888Z,1.21
2022-11-30T20:17:06.078Z,1.19
2022-11-30T20:20:11.540Z,1.18
2022-11-30T20:23:14.548Z,1.22
2022-11-30T20:26:21.035Z,1.26
2022-11-30T20:29:24.131Z,1.23
2022-11-30T20:32:27.573Z,1.24
2022-11-30T20:35:31.885Z,1.26
2022-11-30T20:38:35.051Z,1.28
2022-11-30T20:41:41.301Z,1.26
2022-11-30T20:44:44.596Z,1.30
2022-11-30T20:47:47.885Z,1.39
2022-11-30T20:51:14.166Z,1.38
2022-11-30T20:54:14.829Z,1.36
2022-11-30T20:57:19.141Z,1.36
2022-11-30T21:00:22.222Z,1.44
2022-11-30T21:03:25.515Z,1.46
2022-11-30T21:06:29.288Z,1.43
2022-11-30T21:09:32.229Z,1.46
2022-11-30T21:12:36.811Z,1.44
2022-11-30T21:15:39.936Z,1.38
2022-11-30T21:18:45.679Z,1.33
2022-11-30T21:21:48.742Z,1.38
2022-11-30T21:24:52.047Z,1.24
2022-11-30T21:27:56.311Z,1.19
2022-11-30T21:31:22.624Z,1.26
2022-11-30T21:34:31.241Z,1.24
2022-11-30T21:37:34.203Z,1.23
2022-11-30T21:40:37.329Z,1.22
2022-11-30T21:43:42.502Z,1.25
2022-11-30T21:46:47.376Z,1.24
2022-11-30T21:49:50.469Z,1.20
2022-11-30T21:52:53.415Z,1.20
2022-11-30T21:55:57.067Z,1.15
2022-11-30T21:59:02.556Z,1.09
2022-11-30T22:02:05.961Z,1.11
2022-11-30T22:05:09.626Z,1.05
2022-11-30T22:08:12.546Z,1.07
2022-11-30T22:11:17.901Z,1.05
2022-11-30T22:14:22.272Z,1.07
2022-11-30T22:17:25.783Z,1.03
2022-11-30T22:20:28.762Z,0.97
2022-11-30T22:23:32.696Z,0.94
2022-11-30T22:26:38.350Z,0.94
2022-11-30T22:29:42.598Z,0.88
2022-11-30T22:32:46.408Z,0.90
2022-11-30T22:35:49.387Z,0.86
2022-11-30T22:38:55.786Z,0.76
2022-11-30T22:41:58.824Z,0.73
2022-11-30T22:45:03.089Z,0.84
2022-11-30T22:48:06.764Z,0.86
2022-11-30T22:51:13.707Z,0.87
2022-11-30T22:54:17.000Z,0.91
2022-11-30T22:57:20.045Z,0.98
2022-11-30T23:00:24.857Z,0.94
2022-11-30T23:03:28.758Z,0.85
2022-11-30T23:06:32.621Z,0.89
2022-11-30T23:09:35.565Z,0.91
2022-11-30T23:12:58.323Z,0.81
2022-11-30T23:16:04.657Z,0.91
2022-11-30T23:19:08.765Z,0.90
2022-11-30T23:22:11.717Z,1.00
2022-11-30T23:25:14.637Z,0.98
2022-11-30T23:28:18.235Z,0.94
2022-11-30T23:31:34.287Z,0.95
2022-11-30T23:34:41.657Z,0.97
2022-11-30T23:37:44.718Z,0.99
2022-11-30T23:40:47.774Z,1.10
2022-11-30T23:43:50.791Z,1.09
2022-11-30T23:46:55.085Z,1.05
2022-11-30T23:49:58.104Z,1.05
2022-11-30T23:53:01.019Z,1.04
2022-11-30T23:56:06.776Z,1.05
2022-11-30T23:59:09.751Z,0.98
